sensor_id;sensor_type;location;lat;lon;timestamp;temperature;humidity
54124;DHT22;55741;53.252;5.788;2022-09-09T00:01:28;14.10;99.90
54124;DHT22;55741;53.252;5.788;2022-09-09T00:06:46;14.10;99.90
54124;DHT22;55741;53.252;5.788;2022-09-09T00:09:17;14.00;99.90
54124;DHT22;55741;53.252;5.788;2022-09-09T00:11:51;14.00;99.90
54124;DHT22;55741;53.252;5.788;2022-09-09T00:14:19;14.00;99.90
54124;DHT22;55741;53.252;5.788;2022-09-09T00:16:51;14.00;99.90
54124;DHT22;55741;53.252;5.788;2022-09-09T00:19:28;14.10;99.90
54124;DHT22;55741;53.252;5.788;2022-09-09T00:24:53;14.10;99.90
54124;DHT22;55741;53.252;5.788;2022-09-09T00:27:49;14.20;99.90
54124;DHT22;55741;53.252;5.788;2022-09-09T00:30:35;14.20;99.90
54124;DHT22;55741;53.252;5.788;2022-09-09T00:33:23;14.20;99.90
54124;DHT22;55741;53.252;5.788;2022-09-09T00:36:14;14.20;99.90
54124;DHT22;55741;53.252;5.788;2022-09-09T00:39:03;14.30;99.90
54124;DHT22;55741;53.252;5.788;2022-09-09T00:45:01;14.30;99.90
54124;DHT22;55741;53.252;5.788;2022-09-09T00:47:50;14.30;99.90
54124;DHT22;55741;53.252;5.788;2022-09-09T00:50:52;14.30;99.90
54124;DHT22;55741;53.252;5.788;2022-09-09T00:54:08;14.30;99.90
54124;DHT22;55741;53.252;5.788;2022-09-09T00:59:57;14.20;99.90
54124;DHT22;55741;53.252;5.788;2022-09-09T01:02:59;14.20;99.90
54124;DHT22;55741;53.252;5.788;2022-09-09T01:12:41;14.20;99.90
54124;DHT22;55741;53.252;5.788;2022-09-09T01:15:29;14.10;99.90
54124;DHT22;55741;53.252;5.788;2022-09-09T01:18:18;14.10;99.90
54124;DHT22;55741;53.252;5.788;2022-09-09T01:26:46;14.20;99.90
54124;DHT22;55741;53.252;5.788;2022-09-09T01:29:33;14.10;99.90
54124;DHT22;55741;53.252;5.788;2022-09-09T01:35:49;14.20;99.90
54124;DHT22;55741;53.252;5.788;2022-09-09T01:38:40;14.20;99.90
54124;DHT22;55741;53.252;5.788;2022-09-09T01:41:26;14.20;99.90
54124;DHT22;55741;53.252;5.788;2022-09-09T01:44:12;14.20;99.90
54124;DHT22;55741;53.252;5.788;2022-09-09T01:46:58;14.30;99.90
54124;DHT22;55741;53.252;5.788;2022-09-09T01:49:44;14.30;99.90
54124;DHT22;55741;53.252;5.788;2022-09-09T01:52:33;14.30;99.90
54124;DHT22;55741;53.252;5.788;2022-09-09T01:55:32;14.30;99.90
54124;DHT22;55741;53.252;5.788;2022-09-09T02:04:38;14.40;99.90
54124;DHT22;55741;53.252;5.788;2022-09-09T02:07:48;14.40;99.90
54124;DHT22;55741;53.252;5.788;2022-09-09T02:13:47;14.40;99.90
54124;DHT22;55741;53.252;5.788;2022-09-09T02:17:13;14.40;99.90
54124;DHT22;55741;53.252;5.788;2022-09-09T02:20:14;14.40;99.90
54124;DHT22;55741;53.252;5.788;2022-09-09T02:23:01;14.50;99.90
54124;DHT22;55741;53.252;5.788;2022-09-09T02:25:49;14.50;99.90
54124;DHT22;55741;53.252;5.788;2022-09-09T02:28:38;14.50;99.90
54124;DHT22;55741;53.252;5.788;2022-09-09T02:31:25;14.40;99.90
54124;DHT22;55741;53.252;5.788;2022-09-09T02:34:13;14.40;99.90
54124;DHT22;55741;53.252;5.788;2022-09-09T02:37:00;14.40;99.90
54124;DHT22;55741;53.252;5.788;2022-09-09T02:39:48;14.40;99.90
54124;DHT22;55741;53.252;5.788;2022-09-09T02:42:40;14.40;99.90
54124;DHT22;55741;53.252;5.788;2022-09-09T02:45:32;14.40;99.90
54124;DHT22;55741;53.252;5.788;2022-09-09T02:48:30;14.40;99.90
54124;DHT22;55741;53.252;5.788;2022-09-09T02:51:24;14.40;99.90
54124;DHT22;55741;53.252;5.788;2022-09-09T02:54:28;14.40;99.90
54124;DHT22;55741;53.252;5.788;2022-09-09T02:57:23;14.30;99.90
54124;DHT22;55741;53.252;5.788;2022-09-09T03:00:11;14.30;99.90
54124;DHT22;55741;53.252;5.788;2022-09-09T03:02:57;14.30;99.90
54124;DHT22;55741;53.252;5.788;2022-09-09T03:05:43;14.30;99.90
54124;DHT22;55741;53.252;5.788;2022-09-09T03:08:29;14.30;99.90
54124;DHT22;55741;53.252;5.788;2022-09-09T03:11:15;14.20;99.90
54124;DHT22;55741;53.252;5.788;2022-09-09T03:14:02;14.20;99.90
54124;DHT22;55741;53.252;5.788;2022-09-09T03:16:48;14.20;99.90
54124;DHT22;55741;53.252;5.788;2022-09-09T03:19:33;14.20;99.90
54124;DHT22;55741;53.252;5.788;2022-09-09T03:22:20;14.10;99.90
54124;DHT22;55741;53.252;5.788;2022-09-09T03:25:07;14.10;99.90
54124;DHT22;55741;53.252;5.788;2022-09-09T03:27:53;14.10;99.90
54124;DHT22;55741;53.252;5.788;2022-09-09T03:30:40;14.10;99.90
54124;DHT22;55741;53.252;5.788;2022-09-09T03:33:26;14.00;99.90
54124;DHT22;55741;53.252;5.788;2022-09-09T03:36:12;14.00;99.90
54124;DHT22;55741;53.252;5.788;2022-09-09T03:38:58;14.00;99.90
54124;DHT22;55741;53.252;5.788;2022-09-09T03:41:44;14.00;99.90
54124;DHT22;55741;53.252;5.788;2022-09-09T03:44:32;13.90;99.90
54124;DHT22;55741;53.252;5.788;2022-09-09T03:47:21;14.00;99.90
54124;DHT22;55741;53.252;5.788;2022-09-09T03:50:08;14.00;99.90
54124;DHT22;55741;53.252;5.788;2022-09-09T03:52:54;14.00;99.90
54124;DHT22;55741;53.252;5.788;2022-09-09T03:55:46;14.00;99.90
54124;DHT22;55741;53.252;5.788;2022-09-09T03:58:37;14.10;99.90
54124;DHT22;55741;53.252;5.788;2022-09-09T04:01:23;14.10;99.90
54124;DHT22;55741;53.252;5.788;2022-09-09T04:04:08;14.10;99.90
54124;DHT22;55741;53.252;5.788;2022-09-09T04:06:55;14.10;99.90
54124;DHT22;55741;53.252;5.788;2022-09-09T04:09:40;14.00;99.90
54124;DHT22;55741;53.252;5.788;2022-09-09T04:12:26;14.00;99.90
54124;DHT22;55741;53.252;5.788;2022-09-09T04:15:12;14.00;99.90
54124;DHT22;55741;53.252;5.788;2022-09-09T04:17:57;14.00;99.90
54124;DHT22;55741;53.252;5.788;2022-09-09T04:20:46;14.00;99.90
54124;DHT22;55741;53.252;5.788;2022-09-09T04:23:33;13.90;99.90
54124;DHT22;55741;53.252;5.788;2022-09-09T04:26:20;13.90;99.90
54124;DHT22;55741;53.252;5.788;2022-09-09T04:29:06;14.00;99.90
54124;DHT22;55741;53.252;5.788;2022-09-09T04:31:53;14.00;99.90
54124;DHT22;55741;53.252;5.788;2022-09-09T04:34:38;14.00;99.90
54124;DHT22;55741;53.252;5.788;2022-09-09T04:37:24;14.00;99.90
54124;DHT22;55741;53.252;5.788;2022-09-09T04:40:10;14.00;99.90
54124;DHT22;55741;53.252;5.788;2022-09-09T04:43:03;14.00;99.90
54124;DHT22;55741;53.252;5.788;2022-09-09T04:45:52;14.10;99.90
54124;DHT22;55741;53.252;5.788;2022-09-09T04:48:38;14.10;99.90
54124;DHT22;55741;53.252;5.788;2022-09-09T04:51:24;14.10;99.90
54124;DHT22;55741;53.252;5.788;2022-09-09T04:54:10;14.10;99.90
54124;DHT22;55741;53.252;5.788;2022-09-09T04:56:58;14.10;99.90
54124;DHT22;55741;53.252;5.788;2022-09-09T04:59:44;14.10;99.90
54124;DHT22;55741;53.252;5.788;2022-09-09T05:02:31;14.10;99.90
54124;DHT22;55741;53.252;5.788;2022-09-09T05:05:17;14.10;99.90
54124;DHT22;55741;53.252;5.788;2022-09-09T05:08:05;14.10;99.90
54124;DHT22;55741;53.252;5.788;2022-09-09T05:10:51;14.20;99.90
54124;DHT22;55741;53.252;5.788;2022-09-09T05:13:37;14.10;99.90
54124;DHT22;55741;53.252;5.788;2022-09-09T05:16:23;14.10;99.90
54124;DHT22;55741;53.252;5.788;2022-09-09T05:19:08;14.20;99.90
54124;DHT22;55741;53.252;5.788;2022-09-09T05:21:54;14.20;99.90
54124;DHT22;55741;53.252;5.788;2022-09-09T05:24:40;14.20;99.90
54124;DHT22;55741;53.252;5.788;2022-09-09T05:27:26;14.20;99.90
54124;DHT22;55741;53.252;5.788;2022-09-09T05:30:11;14.20;99.90
54124;DHT22;55741;53.252;5.788;2022-09-09T05:32:57;14.30;99.90
54124;DHT22;55741;53.252;5.788;2022-09-09T05:35:43;14.30;99.90
54124;DHT22;55741;53.252;5.788;2022-09-09T05:38:30;14.30;99.90
54124;DHT22;55741;53.252;5.788;2022-09-09T05:41:17;14.30;99.90
54124;DHT22;55741;53.252;5.788;2022-09-09T05:44:03;14.40;99.90
54124;DHT22;55741;53.252;5.788;2022-09-09T05:46:49;14.40;99.90
54124;DHT22;55741;53.252;5.788;2022-09-09T05:49:34;14.40;99.90
54124;DHT22;55741;53.252;5.788;2022-09-09T05:52:20;14.40;99.90
54124;DHT22;55741;53.252;5.788;2022-09-09T05:55:06;14.40;99.90
54124;DHT22;55741;53.252;5.788;2022-09-09T05:57:54;14.40;99.90
54124;DHT22;55741;53.252;5.788;2022-09-09T06:00:39;14.50;99.90
54124;DHT22;55741;53.252;5.788;2022-09-09T06:03:25;14.50;99.90
54124;DHT22;55741;53.252;5.788;2022-09-09T06:06:13;14.50;99.90
54124;DHT22;55741;53.252;5.788;2022-09-09T06:08:59;14.50;99.90
54124;DHT22;55741;53.252;5.788;2022-09-09T06:11:46;14.50;99.90
54124;DHT22;55741;53.252;5.788;2022-09-09T06:14:31;14.60;99.90
54124;DHT22;55741;53.252;5.788;2022-09-09T06:17:17;14.60;99.90
54124;DHT22;55741;53.252;5.788;2022-09-09T06:20:03;14.60;99.90
54124;DHT22;55741;53.252;5.788;2022-09-09T06:22:49;14.70;99.90
54124;DHT22;55741;53.252;5.788;2022-09-09T06:25:35;14.70;99.90
54124;DHT22;55741;53.252;5.788;2022-09-09T06:28:21;14.80;99.90
54124;DHT22;55741;53.252;5.788;2022-09-09T06:31:09;14.80;99.90
54124;DHT22;55741;53.252;5.788;2022-09-09T06:33:54;14.90;99.90
54124;DHT22;55741;53.252;5.788;2022-09-09T06:36:40;15.00;99.90
54124;DHT22;55741;53.252;5.788;2022-09-09T06:39:26;15.00;99.90
54124;DHT22;55741;53.252;5.788;2022-09-09T06:42:12;15.00;99.90
54124;DHT22;55741;53.252;5.788;2022-09-09T06:44:57;15.10;99.90
54124;DHT22;55741;53.252;5.788;2022-09-09T06:47:44;15.20;99.90
54124;DHT22;55741;53.252;5.788;2022-09-09T06:50:30;15.20;99.90
54124;DHT22;55741;53.252;5.788;2022-09-09T06:53:16;15.20;99.90
54124;DHT22;55741;53.252;5.788;2022-09-09T06:59:00;15.30;99.90
54124;DHT22;55741;53.252;5.788;2022-09-09T07:01:49;15.40;99.90
54124;DHT22;55741;53.252;5.788;2022-09-09T07:04:37;15.40;99.90
54124;DHT22;55741;53.252;5.788;2022-09-09T07:07:23;15.40;99.90
54124;DHT22;55741;53.252;5.788;2022-09-09T07:10:09;15.50;99.90
54124;DHT22;55741;53.252;5.788;2022-09-09T07:12:55;15.50;99.90
54124;DHT22;55741;53.252;5.788;2022-09-09T07:15:41;15.60;99.90
54124;DHT22;55741;53.252;5.788;2022-09-09T07:18:27;15.70;99.90
54124;DHT22;55741;53.252;5.788;2022-09-09T07:21:13;15.70;99.90
54124;DHT22;55741;53.252;5.788;2022-09-09T07:24:00;15.70;99.90
54124;DHT22;55741;53.252;5.788;2022-09-09T07:26:46;15.70;99.90
54124;DHT22;55741;53.252;5.788;2022-09-09T07:29:32;15.80;99.90
54124;DHT22;55741;53.252;5.788;2022-09-09T07:32:18;15.70;99.90
54124;DHT22;55741;53.252;5.788;2022-09-09T07:35:05;15.70;99.90
54124;DHT22;55741;53.252;5.788;2022-09-09T07:37:51;15.70;99.90
54124;DHT22;55741;53.252;5.788;2022-09-09T07:40:37;15.70;99.90
54124;DHT22;55741;53.252;5.788;2022-09-09T07:43:26;15.70;99.90
54124;DHT22;55741;53.252;5.788;2022-09-09T07:46:13;15.70;99.90
54124;DHT22;55741;53.252;5.788;2022-09-09T07:49:00;15.80;99.90
54124;DHT22;55741;53.252;5.788;2022-09-09T07:51:47;15.90;99.90
54124;DHT22;55741;53.252;5.788;2022-09-09T07:54:36;15.90;99.90
54124;DHT22;55741;53.252;5.788;2022-09-09T07:57:22;16.00;99.90
54124;DHT22;55741;53.252;5.788;2022-09-09T08:00:10;16.20;99.90
54124;DHT22;55741;53.252;5.788;2022-09-09T08:02:56;16.30;99.90
54124;DHT22;55741;53.252;5.788;2022-09-09T08:05:42;16.40;99.90
54124;DHT22;55741;53.252;5.788;2022-09-09T08:08:29;16.40;99.90
54124;DHT22;55741;53.252;5.788;2022-09-09T08:11:15;16.50;99.90
54124;DHT22;55741;53.252;5.788;2022-09-09T08:14:03;16.60;99.90
54124;DHT22;55741;53.252;5.788;2022-09-09T08:16:50;16.80;99.90
54124;DHT22;55741;53.252;5.788;2022-09-09T08:19:36;17.20;99.90
54124;DHT22;55741;53.252;5.788;2022-09-09T08:22:21;17.40;99.90
54124;DHT22;55741;53.252;5.788;2022-09-09T08:25:07;17.50;99.90
54124;DHT22;55741;53.252;5.788;2022-09-09T08:27:54;17.50;99.90
54124;DHT22;55741;53.252;5.788;2022-09-09T08:30:39;17.60;99.90
54124;DHT22;55741;53.252;5.788;2022-09-09T08:33:25;17.50;99.90
54124;DHT22;55741;53.252;5.788;2022-09-09T08:36:13;17.50;99.90
54124;DHT22;55741;53.252;5.788;2022-09-09T08:39:01;17.50;99.90
54124;DHT22;55741;53.252;5.788;2022-09-09T08:47:52;17.50;99.90
54124;DHT22;55741;53.252;5.788;2022-09-09T08:50:41;17.60;99.90
54124;DHT22;55741;53.252;5.788;2022-09-09T08:53:38;17.60;99.90
54124;DHT22;55741;53.252;5.788;2022-09-09T08:56:27;17.60;99.90
54124;DHT22;55741;53.252;5.788;2022-09-09T08:59:17;17.60;99.90
54124;DHT22;55741;53.252;5.788;2022-09-09T09:02:11;17.70;99.90
54124;DHT22;55741;53.252;5.788;2022-09-09T09:08:09;17.80;99.90
54124;DHT22;55741;53.252;5.788;2022-09-09T09:10:58;17.80;99.90
54124;DHT22;55741;53.252;5.788;2022-09-09T09:13:55;17.80;99.90
54124;DHT22;55741;53.252;5.788;2022-09-09T09:16:58;17.90;99.90
54124;DHT22;55741;53.252;5.788;2022-09-09T09:19:44;18.00;99.90
54124;DHT22;55741;53.252;5.788;2022-09-09T09:22:49;18.10;99.90
54124;DHT22;55741;53.252;5.788;2022-09-09T09:25:39;18.20;99.90
54124;DHT22;55741;53.252;5.788;2022-09-09T09:28:31;18.20;99.90
54124;DHT22;55741;53.252;5.788;2022-09-09T09:31:18;18.10;99.90
54124;DHT22;55741;53.252;5.788;2022-09-09T09:34:07;18.10;99.90
54124;DHT22;55741;53.252;5.788;2022-09-09T09:36:54;18.10;99.90
54124;DHT22;55741;53.252;5.788;2022-09-09T09:39:41;18.10;99.90
54124;DHT22;55741;53.252;5.788;2022-09-09T09:42:26;18.10;99.90
54124;DHT22;55741;53.252;5.788;2022-09-09T09:45:42;18.20;99.90
54124;DHT22;55741;53.252;5.788;2022-09-09T09:48:31;18.20;99.90
54124;DHT22;55741;53.252;5.788;2022-09-09T09:51:21;18.20;99.90
54124;DHT22;55741;53.252;5.788;2022-09-09T09:57:11;18.30;99.90
54124;DHT22;55741;53.252;5.788;2022-09-09T10:00:16;18.50;99.90
54124;DHT22;55741;53.252;5.788;2022-09-09T10:03:12;18.60;99.90
54124;DHT22;55741;53.252;5.788;2022-09-09T10:06:04;18.80;99.90
54124;DHT22;55741;53.252;5.788;2022-09-09T10:08:50;18.90;99.90
54124;DHT22;55741;53.252;5.788;2022-09-09T10:14:56;19.00;99.90
54124;DHT22;55741;53.252;5.788;2022-09-09T10:18:15;19.00;99.90
54124;DHT22;55741;53.252;5.788;2022-09-09T10:21:36;19.00;99.90
54124;DHT22;55741;53.252;5.788;2022-09-09T10:24:44;18.90;99.90
54124;DHT22;55741;53.252;5.788;2022-09-09T10:27:44;18.90;99.90
54124;DHT22;55741;53.252;5.788;2022-09-09T10:36:47;19.50;99.90
54124;DHT22;55741;53.252;5.788;2022-09-09T10:39:37;19.90;99.90
54124;DHT22;55741;53.252;5.788;2022-09-09T10:42:30;20.10;99.90
54124;DHT22;55741;53.252;5.788;2022-09-09T10:49:02;20.20;99.90
54124;DHT22;55741;53.252;5.788;2022-09-09T10:58:30;20.20;99.90
54124;DHT22;55741;53.252;5.788;2022-09-09T11:01:27;20.20;99.90
54124;DHT22;55741;53.252;5.788;2022-09-09T11:04:45;20.30;99.90
54124;DHT22;55741;53.252;5.788;2022-09-09T11:07:41;20.50;99.90
54124;DHT22;55741;53.252;5.788;2022-09-09T11:10:39;20.80;99.90
54124;DHT22;55741;53.252;5.788;2022-09-09T11:13:41;20.80;99.90
54124;DHT22;55741;53.252;5.788;2022-09-09T11:16:52;20.90;99.90
54124;DHT22;55741;53.252;5.788;2022-09-09T11:19:40;21.10;99.90
54124;DHT22;55741;53.252;5.788;2022-09-09T11:22:34;21.20;99.90
54124;DHT22;55741;53.252;5.788;2022-09-09T11:25:23;21.00;99.90
54124;DHT22;55741;53.252;5.788;2022-09-09T11:28:32;21.00;99.90
54124;DHT22;55741;53.252;5.788;2022-09-09T11:37:08;20.80;99.90
54124;DHT22;55741;53.252;5.788;2022-09-09T11:40:14;21.10;99.90
54124;DHT22;55741;53.252;5.788;2022-09-09T11:43:13;21.40;99.90
54124;DHT22;55741;53.252;5.788;2022-09-09T11:46:01;21.60;99.90
54124;DHT22;55741;53.252;5.788;2022-09-09T11:49:02;21.90;99.90
54124;DHT22;55741;53.252;5.788;2022-09-09T11:51:49;22.10;99.90
54124;DHT22;55741;53.252;5.788;2022-09-09T11:54:46;22.30;99.90
54124;DHT22;55741;53.252;5.788;2022-09-09T11:57:35;22.50;99.90
54124;DHT22;55741;53.252;5.788;2022-09-09T12:00:40;22.50;99.90
54124;DHT22;55741;53.252;5.788;2022-09-09T12:03:39;22.30;99.90
54124;DHT22;55741;53.252;5.788;2022-09-09T12:06:32;22.30;99.90
54124;DHT22;55741;53.252;5.788;2022-09-09T12:10:03;22.50;99.90
54124;DHT22;55741;53.252;5.788;2022-09-09T12:12:50;22.50;99.90
54124;DHT22;55741;53.252;5.788;2022-09-09T12:15:50;22.30;99.90
54124;DHT22;55741;53.252;5.788;2022-09-09T12:18:39;22.10;99.90
54124;DHT22;55741;53.252;5.788;2022-09-09T12:21:54;21.90;99.90
54124;DHT22;55741;53.252;5.788;2022-09-09T12:28:14;21.50;99.90
54124;DHT22;55741;53.252;5.788;2022-09-09T12:35:27;21.20;99.90
54124;DHT22;55741;53.252;5.788;2022-09-09T12:37:57;20.90;99.90
54124;DHT22;55741;53.252;5.788;2022-09-09T12:40:54;20.80;99.90
54124;DHT22;55741;53.252;5.788;2022-09-09T12:43:40;20.80;99.90
54124;DHT22;55741;53.252;5.788;2022-09-09T12:46:39;20.90;99.90
54124;DHT22;55741;53.252;5.788;2022-09-09T12:49:36;20.80;99.90
54124;DHT22;55741;53.252;5.788;2022-09-09T12:52:28;20.70;99.90
54124;DHT22;55741;53.252;5.788;2022-09-09T12:55:25;20.70;99.90
54124;DHT22;55741;53.252;5.788;2022-09-09T12:58:13;20.80;99.90
54124;DHT22;55741;53.252;5.788;2022-09-09T13:01:04;20.90;99.90
54124;DHT22;55741;53.252;5.788;2022-09-09T13:03:50;20.90;99.90
54124;DHT22;55741;53.252;5.788;2022-09-09T13:06:38;21.10;99.90
54124;DHT22;55741;53.252;5.788;2022-09-09T13:09:24;21.40;99.90
54124;DHT22;55741;53.252;5.788;2022-09-09T13:12:18;21.60;99.90
54124;DHT22;55741;53.252;5.788;2022-09-09T13:15:12;21.80;99.90
54124;DHT22;55741;53.252;5.788;2022-09-09T13:18:03;21.90;99.90
54124;DHT22;55741;53.252;5.788;2022-09-09T13:20:51;21.90;99.90
54124;DHT22;55741;53.252;5.788;2022-09-09T13:23:37;21.80;99.90
54124;DHT22;55741;53.252;5.788;2022-09-09T13:26:25;21.80;99.90
54124;DHT22;55741;53.252;5.788;2022-09-09T13:29:18;21.70;99.90
54124;DHT22;55741;53.252;5.788;2022-09-09T13:32:05;21.50;99.90
54124;DHT22;55741;53.252;5.788;2022-09-09T13:34:57;21.20;99.90
54124;DHT22;55741;53.252;5.788;2022-09-09T13:37:43;21.10;99.90
54124;DHT22;55741;53.252;5.788;2022-09-09T13:40:29;21.00;99.90
54124;DHT22;55741;53.252;5.788;2022-09-09T13:43:21;21.10;99.90
54124;DHT22;55741;53.252;5.788;2022-09-09T13:46:37;21.10;99.90
54124;DHT22;55741;53.252;5.788;2022-09-09T13:49:23;21.10;99.90
54124;DHT22;55741;53.252;5.788;2022-09-09T13:52:14;21.10;99.90
54124;DHT22;55741;53.252;5.788;2022-09-09T13:55:02;21.00;99.90
54124;DHT22;55741;53.252;5.788;2022-09-09T13:57:56;20.90;99.90
54124;DHT22;55741;53.252;5.788;2022-09-09T14:00:42;20.80;99.90
54124;DHT22;55741;53.252;5.788;2022-09-09T14:03:29;20.80;99.90
54124;DHT22;55741;53.252;5.788;2022-09-09T14:06:15;20.80;99.90
54124;DHT22;55741;53.252;5.788;2022-09-09T14:09:03;20.60;99.90
54124;DHT22;55741;53.252;5.788;2022-09-09T14:11:49;20.70;99.90
54124;DHT22;55741;53.252;5.788;2022-09-09T14:14:35;20.90;99.90
54124;DHT22;55741;53.252;5.788;2022-09-09T14:17:21;21.10;99.90
54124;DHT22;55741;53.252;5.788;2022-09-09T14:20:08;21.30;99.90
54124;DHT22;55741;53.252;5.788;2022-09-09T14:22:54;21.50;99.90
54124;DHT22;55741;53.252;5.788;2022-09-09T14:25:43;21.60;99.90
54124;DHT22;55741;53.252;5.788;2022-09-09T14:28:28;21.60;99.90
54124;DHT22;55741;53.252;5.788;2022-09-09T14:31:14;21.60;99.90
54124;DHT22;55741;53.252;5.788;2022-09-09T14:34:01;21.80;99.90
54124;DHT22;55741;53.252;5.788;2022-09-09T14:36:47;22.00;99.90
54124;DHT22;55741;53.252;5.788;2022-09-09T14:39:33;22.10;99.90
54124;DHT22;55741;53.252;5.788;2022-09-09T14:42:19;22.00;99.90
54124;DHT22;55741;53.252;5.788;2022-09-09T14:45:05;21.80;99.90
54124;DHT22;55741;53.252;5.788;2022-09-09T14:47:51;21.60;99.90
54124;DHT22;55741;53.252;5.788;2022-09-09T14:50:37;21.40;99.90
54124;DHT22;55741;53.252;5.788;2022-09-09T14:53:25;21.10;99.90
54124;DHT22;55741;53.252;5.788;2022-09-09T14:56:20;20.90;99.90
54124;DHT22;55741;53.252;5.788;2022-09-09T14:59:07;20.70;99.90
54124;DHT22;55741;53.252;5.788;2022-09-09T15:01:53;20.50;99.90
54124;DHT22;55741;53.252;5.788;2022-09-09T15:04:39;20.40;99.90
54124;DHT22;55741;53.252;5.788;2022-09-09T15:07:25;20.20;99.90
54124;DHT22;55741;53.252;5.788;2022-09-09T15:09:54;20.10;99.90
54124;DHT22;55741;53.252;5.788;2022-09-09T15:12:22;20.10;99.90
54124;DHT22;55741;53.252;5.788;2022-09-09T15:14:49;19.90;99.90
54124;DHT22;55741;53.252;5.788;2022-09-09T15:17:17;19.80;99.90
54124;DHT22;55741;53.252;5.788;2022-09-09T15:19:43;19.60;99.90
54124;DHT22;55741;53.252;5.788;2022-09-09T15:22:09;19.40;99.90
54124;DHT22;55741;53.252;5.788;2022-09-09T15:24:35;19.20;99.90
54124;DHT22;55741;53.252;5.788;2022-09-09T15:27:01;19.00;99.90
54124;DHT22;55741;53.252;5.788;2022-09-09T15:29:27;18.90;99.90
54124;DHT22;55741;53.252;5.788;2022-09-09T15:31:54;18.80;99.90
54124;DHT22;55741;53.252;5.788;2022-09-09T15:34:21;18.80;99.90
54124;DHT22;55741;53.252;5.788;2022-09-09T15:36:47;18.70;99.90
54124;DHT22;55741;53.252;5.788;2022-09-09T15:39:17;18.60;99.90
54124;DHT22;55741;53.252;5.788;2022-09-09T15:41:47;18.60;99.90
54124;DHT22;55741;53.252;5.788;2022-09-09T15:44:14;18.60;99.90
54124;DHT22;55741;53.252;5.788;2022-09-09T15:46:43;18.60;99.90
54124;DHT22;55741;53.252;5.788;2022-09-09T15:49:10;18.60;99.90
54124;DHT22;55741;53.252;5.788;2022-09-09T15:51:38;18.50;99.90
54124;DHT22;55741;53.252;5.788;2022-09-09T15:54:05;18.50;99.90
54124;DHT22;55741;53.252;5.788;2022-09-09T15:56:31;18.50;99.90
54124;DHT22;55741;53.252;5.788;2022-09-09T15:58:59;18.50;99.90
54124;DHT22;55741;53.252;5.788;2022-09-09T16:01:29;18.40;99.90
54124;DHT22;55741;53.252;5.788;2022-09-09T16:03:57;18.40;99.90
54124;DHT22;55741;53.252;5.788;2022-09-09T16:06:24;18.40;99.90
54124;DHT22;55741;53.252;5.788;2022-09-09T16:08:52;18.40;99.90
54124;DHT22;55741;53.252;5.788;2022-09-09T16:11:24;18.30;99.90
54124;DHT22;55741;53.252;5.788;2022-09-09T16:13:52;18.30;99.90
54124;DHT22;55741;53.252;5.788;2022-09-09T16:16:21;18.30;99.90
54124;DHT22;55741;53.252;5.788;2022-09-09T16:18:54;18.20;99.90
54124;DHT22;55741;53.252;5.788;2022-09-09T16:21:31;18.20;99.90
54124;DHT22;55741;53.252;5.788;2022-09-09T16:23:59;18.30;99.90
54124;DHT22;55741;53.252;5.788;2022-09-09T16:26:26;18.20;99.90
54124;DHT22;55741;53.252;5.788;2022-09-09T16:28:53;18.20;99.90
54124;DHT22;55741;53.252;5.788;2022-09-09T16:31:22;18.20;99.90
54124;DHT22;55741;53.252;5.788;2022-09-09T16:33:49;18.20;99.90
54124;DHT22;55741;53.252;5.788;2022-09-09T16:36:30;18.10;99.90
54124;DHT22;55741;53.252;5.788;2022-09-09T16:39:00;18.10;99.90
54124;DHT22;55741;53.252;5.788;2022-09-09T16:41:27;18.10;99.90
54124;DHT22;55741;53.252;5.788;2022-09-09T16:43:58;18.10;99.90
54124;DHT22;55741;53.252;5.788;2022-09-09T16:46:27;18.10;99.90
54124;DHT22;55741;53.252;5.788;2022-09-09T16:48:53;18.10;99.90
54124;DHT22;55741;53.252;5.788;2022-09-09T16:51:23;18.10;99.90
54124;DHT22;55741;53.252;5.788;2022-09-09T16:53:50;18.00;99.90
54124;DHT22;55741;53.252;5.788;2022-09-09T16:56:22;18.00;99.90
54124;DHT22;55741;53.252;5.788;2022-09-09T16:58:52;17.90;99.90
54124;DHT22;55741;53.252;5.788;2022-09-09T17:01:24;17.90;99.90
54124;DHT22;55741;53.252;5.788;2022-09-09T17:03:57;17.90;99.90
54124;DHT22;55741;53.252;5.788;2022-09-09T17:06:23;17.80;99.90
54124;DHT22;55741;53.252;5.788;2022-09-09T17:08:57;17.80;99.90
54124;DHT22;55741;53.252;5.788;2022-09-09T17:11:24;17.80;99.90
54124;DHT22;55741;53.252;5.788;2022-09-09T17:13:51;17.70;99.90
54124;DHT22;55741;53.252;5.788;2022-09-09T17:16:19;17.80;99.90
54124;DHT22;55741;53.252;5.788;2022-09-09T17:18:48;17.80;99.90
54124;DHT22;55741;53.252;5.788;2022-09-09T17:21:17;17.80;99.90
54124;DHT22;55741;53.252;5.788;2022-09-09T17:23:43;17.80;99.90
54124;DHT22;55741;53.252;5.788;2022-09-09T17:26:12;17.70;99.90
54124;DHT22;55741;53.252;5.788;2022-09-09T17:28:39;17.70;99.90
54124;DHT22;55741;53.252;5.788;2022-09-09T17:31:08;17.50;99.90
54124;DHT22;55741;53.252;5.788;2022-09-09T17:33:35;17.40;99.90
54124;DHT22;55741;53.252;5.788;2022-09-09T17:36:13;17.40;99.90
54124;DHT22;55741;53.252;5.788;2022-09-09T17:38:39;17.30;99.90
54124;DHT22;55741;53.252;5.788;2022-09-09T17:41:36;17.30;99.90
54124;DHT22;55741;53.252;5.788;2022-09-09T17:44:02;17.30;99.90
54124;DHT22;55741;53.252;5.788;2022-09-09T17:46:31;17.20;99.90
54124;DHT22;55741;53.252;5.788;2022-09-09T17:49:02;17.20;99.90
54124;DHT22;55741;53.252;5.788;2022-09-09T17:51:29;17.10;99.90
54124;DHT22;55741;53.252;5.788;2022-09-09T17:54:00;17.10;99.90
54124;DHT22;55741;53.252;5.788;2022-09-09T17:56:29;17.00;99.90
54124;DHT22;55741;53.252;5.788;2022-09-09T17:58:56;17.00;99.90
54124;DHT22;55741;53.252;5.788;2022-09-09T18:01:30;16.90;99.90
54124;DHT22;55741;53.252;5.788;2022-09-09T18:03:59;16.90;99.90
54124;DHT22;55741;53.252;5.788;2022-09-09T18:06:32;16.90;99.90
54124;DHT22;55741;53.252;5.788;2022-09-09T18:09:00;16.80;99.90
54124;DHT22;55741;53.252;5.788;2022-09-09T18:11:32;16.80;99.90
54124;DHT22;55741;53.252;5.788;2022-09-09T18:14:01;16.70;99.90
54124;DHT22;55741;53.252;5.788;2022-09-09T18:16:29;16.60;99.90
54124;DHT22;55741;53.252;5.788;2022-09-09T18:18:56;16.50;99.90
54124;DHT22;55741;53.252;5.788;2022-09-09T18:21:31;16.50;99.90
54124;DHT22;55741;53.252;5.788;2022-09-09T18:24:03;16.50;99.90
54124;DHT22;55741;53.252;5.788;2022-09-09T18:26:30;16.50;99.90
54124;DHT22;55741;53.252;5.788;2022-09-09T18:29:00;16.60;99.90
54124;DHT22;55741;53.252;5.788;2022-09-09T18:31:29;16.60;99.90
54124;DHT22;55741;53.252;5.788;2022-09-09T18:33:57;16.60;99.90
54124;DHT22;55741;53.252;5.788;2022-09-09T18:36:29;16.60;99.90
54124;DHT22;55741;53.252;5.788;2022-09-09T18:38:56;16.70;99.90
54124;DHT22;55741;53.252;5.788;2022-09-09T18:41:28;16.60;99.90
54124;DHT22;55741;53.252;5.788;2022-09-09T18:43:57;16.70;99.90
54124;DHT22;55741;53.252;5.788;2022-09-09T18:46:25;16.70;99.90